createdAt,value
2019-05-07T00:01:02.870Z,66.67
2019-05-07T00:02:17.358Z,66.83
2019-05-07T00:03:22.047Z,66.83
2019-05-07T00:04:25.785Z,67.23
2019-05-07T00:05:29.969Z,67.07
2019-05-07T00:06:33.613Z,66.72
2019-05-07T00:07:37.356Z,67.50
2019-05-07T00:08:44.678Z,67.50
2019-05-07T00:09:46.432Z,67.15
2019-05-07T00:10:50.171Z,66.70
2019-05-07T00:11:53.955Z,66.70
2019-05-07T00:12:57.585Z,67.65
2019-05-07T00:14:03.138Z,67.67
2019-05-07T00:15:08.220Z,67.50
2019-05-07T00:16:12.785Z,68.00
2019-05-07T00:17:16.570Z,68.61
2019-05-07T00:18:20.323Z,68.61
2019-05-07T00:19:23.960Z,68.73
2019-05-07T00:20:27.710Z,68.51
2019-05-07T00:21:32.663Z,67.86
2019-05-07T00:22:36.487Z,67.86
2019-05-07T00:23:40.120Z,67.47
2019-05-07T00:24:43.774Z,67.43
2019-05-07T00:25:47.451Z,67.18
2019-05-07T00:26:53.222Z,67.88
2019-05-07T00:27:56.472Z,67.69
2019-05-07T00:29:02.219Z,67.64
2019-05-07T00:30:07.295Z,68.34
2019-05-07T00:31:12.352Z,68.68
2019-05-07T00:32:16.118Z,68.68
2019-05-07T00:33:19.851Z,68.10
2019-05-07T00:34:25.464Z,67.93
2019-05-07T00:35:32.415Z,68.04
2019-05-07T00:36:52.971Z,68.01
2019-05-07T00:37:58.259Z,68.01
2019-05-07T00:39:15.503Z,67.58
2019-05-07T00:40:37.689Z,67.10
2019-05-07T00:41:42.989Z,68.12
2019-05-07T00:43:04.408Z,67.18
2019-05-07T00:44:09.444Z,67.18
2019-05-07T00:45:20.328Z,66.72
2019-05-07T00:46:22.645Z,66.72
2019-05-07T00:47:26.284Z,66.64
2019-05-07T00:48:29.986Z,66.64
2019-05-07T00:49:33.612Z,66.77
2019-05-07T00:50:38.966Z,67.11
2019-05-07T00:51:42.985Z,67.11
2019-05-07T00:52:46.664Z,67.60
2019-05-07T00:53:52.082Z,67.16
2019-05-07T00:54:55.768Z,67.16
2019-05-07T00:55:59.410Z,67.29
2019-05-07T00:57:03.225Z,67.29
2019-05-07T00:58:06.885Z,67.51
2019-05-07T00:59:12.903Z,67.42
2019-05-07T01:00:16.008Z,65.97
2019-05-07T01:01:19.647Z,65.97
2019-05-07T01:02:23.569Z,66.06
2019-05-07T01:03:27.146Z,66.17
2019-05-07T01:04:33.020Z,66.87
2019-05-07T01:05:36.118Z,66.87
2019-05-07T01:06:39.747Z,66.38
2019-05-07T01:07:43.426Z,66.81
2019-05-07T01:08:47.067Z,66.24
2019-05-07T01:09:59.278Z,65.98
2019-05-07T01:11:02.917Z,66.57
2019-05-07T01:12:06.762Z,66.64
2019-05-07T01:13:12.577Z,66.36
2019-05-07T01:14:15.889Z,66.28
2019-05-07T01:15:28.895Z,65.71
2019-05-07T01:16:24.937Z,65.71
2019-05-07T01:17:28.569Z,64.49
2019-05-07T01:18:32.483Z,64.49
2019-05-07T01:19:36.287Z,64.34
2019-05-07T01:20:42.092Z,64.35
2019-05-07T01:21:45.315Z,64.56
2019-05-07T01:22:49.008Z,64.56
2019-05-07T01:23:52.673Z,64.49
2019-05-07T01:24:56.504Z,64.49
2019-05-07T01:26:00.139Z,64.06
2019-05-07T01:27:03.797Z,63.93
2019-05-07T01:28:07.429Z,64.22
2019-05-07T01:29:12.862Z,63.52
2019-05-07T01:30:16.943Z,64.33
2019-05-07T01:31:22.211Z,64.97
2019-05-07T01:32:30.425Z,64.92
2019-05-07T01:33:35.623Z,64.43
2019-05-07T01:34:56.464Z,64.56
2019-05-07T01:36:04.964Z,64.56
2019-05-07T01:37:08.617Z,64.20
2019-05-07T01:38:12.972Z,64.20
2019-05-07T01:39:16.674Z,63.70
2019-05-07T01:40:22.604Z,63.70
2019-05-07T01:41:25.695Z,63.81
2019-05-07T01:42:29.387Z,64.28
2019-05-07T01:43:33.017Z,63.87
2019-05-07T01:44:37.079Z,64.04
2019-05-07T01:45:49.161Z,63.45
2019-05-07T01:46:50.121Z,63.71
2019-05-07T01:47:53.760Z,64.13
2019-05-07T01:48:57.670Z,64.13
2019-05-07T01:50:03.061Z,63.27
2019-05-07T01:51:06.841Z,63.41
2019-05-07T01:52:10.509Z,63.80
2019-05-07T01:53:14.140Z,64.30
2019-05-07T01:54:17.798Z,64.39
2019-05-07T01:55:22.551Z,64.14
2019-05-07T01:56:26.438Z,63.91
2019-05-07T01:57:30.006Z,63.91
2019-05-07T01:58:33.694Z,63.91
2019-05-07T01:59:37.326Z,64.21
2019-05-07T02:00:42.411Z,65.16
2019-05-07T02:01:47.437Z,64.83
2019-05-07T02:02:55.906Z,65.30
2019-05-07T02:04:02.315Z,65.30
2019-05-07T02:05:09.634Z,64.94
2019-05-07T02:06:23.846Z,65.16
2019-05-07T02:07:29.156Z,66.04
2019-05-07T02:08:42.351Z,66.03
2019-05-07T02:10:06.186Z,65.93
2019-05-07T02:11:28.146Z,65.84
2019-05-07T02:12:36.561Z,65.81
2019-05-07T02:13:42.040Z,65.81
2019-05-07T02:14:45.787Z,66.11
2019-05-07T02:16:00.134Z,66.74
2019-05-07T02:16:54.778Z,66.74
2019-05-07T02:17:58.820Z,66.14
2019-05-07T02:19:02.449Z,66.14
2019-05-07T02:20:07.525Z,66.74
2019-05-07T02:21:12.924Z,67.19
2019-05-07T02:22:16.680Z,66.98
2019-05-07T02:23:22.175Z,66.98
2019-05-07T02:24:25.881Z,67.29
2019-05-07T02:25:29.503Z,67.47
2019-05-07T02:26:33.151Z,66.62
2019-05-07T02:27:37.078Z,67.01
2019-05-07T02:28:42.625Z,67.01
2019-05-07T02:29:46.193Z,66.77
2019-05-07T02:30:53.303Z,66.55
2019-05-07T02:31:55.239Z,65.60
2019-05-07T02:32:58.907Z,65.38
2019-05-07T02:34:02.998Z,65.66
2019-05-07T02:35:06.898Z,65.44
2019-05-07T02:36:13.915Z,65.23
2019-05-07T02:37:17.901Z,65.15
2019-05-07T02:38:23.287Z,65.22
2019-05-07T02:39:28.876Z,65.95
2019-05-07T02:40:43.055Z,65.33
2019-05-07T02:41:45.661Z,66.16
2019-05-07T02:42:49.362Z,66.10
2019-05-07T02:43:53.695Z,65.77
2019-05-07T02:44:59.300Z,65.08
2019-05-07T02:46:21.217Z,65.09
2019-05-07T02:47:12.900Z,65.09
2019-05-07T02:48:18.464Z,65.19
2019-05-07T02:49:23.769Z,65.44
2019-05-07T02:50:29.057Z,65.31
2019-05-07T02:51:43.379Z,64.59
2019-05-07T02:52:53.376Z,64.90
2019-05-07T02:54:03.765Z,64.34
2019-05-07T02:55:13.421Z,63.94
2019-05-07T02:56:17.253Z,65.15
2019-05-07T02:57:24.062Z,65.26
2019-05-07T02:58:26.618Z,65.42
2019-05-07T02:59:33.354Z,66.23
2019-05-07T03:00:36.364Z,66.21
2019-05-07T03:01:43.026Z,66.59
2019-05-07T03:02:45.412Z,66.69
2019-05-07T03:03:49.082Z,66.53
2019-05-07T03:04:53.350Z,65.90
2019-05-07T03:05:57.259Z,66.69
2019-05-07T03:07:03.867Z,66.57
2019-05-07T03:08:06.700Z,66.00
2019-05-07T03:09:14.094Z,65.80
2019-05-07T03:10:15.790Z,65.80
2019-05-07T03:11:19.421Z,66.47
2019-05-07T03:12:23.750Z,66.28
2019-05-07T03:13:27.608Z,66.38
2019-05-07T03:14:32.420Z,66.45
2019-05-07T03:15:36.158Z,66.07
2019-05-07T03:16:45.432Z,65.88
2019-05-07T03:17:45.489Z,66.33
2019-05-07T03:18:49.108Z,66.05
2019-05-07T03:19:53.778Z,65.99
2019-05-07T03:20:59.152Z,66.19
2019-05-07T03:22:03.957Z,66.19
2019-05-07T03:23:09.281Z,69.47
2019-05-07T03:24:14.615Z,67.94
2019-05-07T03:25:23.138Z,66.75
2019-05-07T03:26:28.573Z,67.44
2019-05-07T03:27:34.124Z,67.44
2019-05-07T03:28:53.643Z,67.90
2019-05-07T03:30:16.086Z,68.12
2019-05-07T03:31:25.861Z,67.77
2019-05-07T03:32:38.137Z,66.64
2019-05-07T03:33:46.571Z,66.39
2019-05-07T03:34:56.926Z,67.05
2019-05-07T03:36:06.269Z,66.82
2019-05-07T03:37:07.981Z,66.82
2019-05-07T03:38:13.157Z,66.22
2019-05-07T03:39:17.038Z,66.22
2019-05-07T03:40:23.038Z,66.47
2019-05-07T03:41:27.736Z,65.30
2019-05-07T03:42:33.512Z,66.22
2019-05-07T03:43:38.013Z,65.79
2019-05-07T03:44:46.512Z,65.82
2019-05-07T03:46:03.562Z,64.74
2019-05-07T03:47:17.690Z,65.16
2019-05-07T03:48:23.979Z,64.95
2019-05-07T03:49:29.717Z,64.78
2019-05-07T03:50:35.673Z,64.78
2019-05-07T03:51:39.390Z,65.04
2019-05-07T03:52:43.170Z,65.02
2019-05-07T03:53:47.274Z,65.04
2019-05-07T03:54:53.841Z,65.31
2019-05-07T03:55:56.273Z,65.51
2019-05-07T03:57:07.443Z,65.62
2019-05-07T03:58:05.339Z,65.37
2019-05-07T03:59:09.353Z,65.74
2019-05-07T04:00:13.520Z,65.34
2019-05-07T04:01:17.219Z,65.33
2019-05-07T04:02:23.830Z,65.44
2019-05-07T04:03:26.224Z,65.40
2019-05-07T04:04:33.003Z,65.59
2019-05-07T04:05:35.267Z,65.87
2019-05-07T04:06:38.891Z,64.96
2019-05-07T04:07:43.323Z,64.97
2019-05-07T04:08:47.083Z,65.00
2019-05-07T04:09:53.363Z,64.36
2019-05-07T04:10:56.133Z,64.23
2019-05-07T04:11:59.778Z,63.52
2019-05-07T04:13:04.501Z,63.70
2019-05-07T04:14:08.499Z,64.03
2019-05-07T04:15:14.593Z,63.86
2019-05-07T04:16:17.831Z,63.98
2019-05-07T04:17:25.761Z,63.45
2019-05-07T04:18:27.102Z,63.28
2019-05-07T04:19:32.846Z,63.21
2019-05-07T04:20:36.268Z,63.97
2019-05-07T04:21:39.923Z,64.41
2019-05-07T04:22:43.657Z,63.83
2019-05-07T04:23:48.968Z,64.15
2019-05-07T04:25:04.388Z,63.84
2019-05-07T04:26:13.087Z,63.77
2019-05-07T04:27:23.807Z,64.16
2019-05-07T04:28:33.415Z,63.75
2019-05-07T04:29:37.573Z,63.52
2019-05-07T04:30:43.876Z,63.33
2019-05-07T04:31:47.147Z,64.15
2019-05-07T04:32:53.142Z,63.34
2019-05-07T04:33:58.471Z,63.34
2019-05-07T04:35:04.252Z,63.65
2019-05-07T04:36:09.775Z,62.88
2019-05-07T04:37:13.827Z,63.59
2019-05-07T04:38:17.514Z,63.63
2019-05-07T04:39:23.167Z,63.34
2019-05-07T04:40:26.720Z,63.72
2019-05-07T04:41:32.957Z,63.83
2019-05-07T04:42:35.711Z,63.61
2019-05-07T04:43:39.421Z,63.40
2019-05-07T04:44:43.831Z,63.56
2019-05-07T04:45:47.645Z,62.84
2019-05-07T04:46:53.302Z,62.63
2019-05-07T04:47:57.207Z,62.35
2019-05-07T04:49:03.297Z,62.86
2019-05-07T04:50:08.594Z,62.54
2019-05-07T04:51:13.882Z,63.02
2019-05-07T04:52:19.203Z,62.53
2019-05-07T04:53:23.699Z,62.43
2019-05-07T04:54:27.659Z,62.42
2019-05-07T04:55:33.495Z,62.42
2019-05-07T04:56:36.726Z,62.40
2019-05-07T04:57:43.497Z,61.62
2019-05-07T04:58:45.791Z,62.08
2019-05-07T04:59:49.481Z,61.87
2019-05-07T05:00:53.956Z,61.87
2019-05-07T05:02:13.533Z,62.10
2019-05-07T05:03:23.808Z,61.57
2019-05-07T05:04:33.986Z,62.05
2019-05-07T05:05:33.170Z,61.73
2019-05-07T05:06:37.115Z,61.17
2019-05-07T05:07:43.864Z,61.17
2019-05-07T05:08:47.557Z,61.17
2019-05-07T05:09:53.236Z,61.82
2019-05-07T05:10:59.548Z,61.78
2019-05-07T05:12:03.263Z,61.55
2019-05-07T05:13:13.247Z,60.69
2019-05-07T05:14:22.586Z,60.96
2019-05-07T05:15:26.819Z,60.83
2019-05-07T05:17:55.547Z,61.14
2019-05-07T05:18:59.592Z,60.22
2019-05-07T05:20:04.106Z,60.22
2019-05-07T05:21:22.780Z,61.90
2019-05-07T05:22:28.131Z,60.97
2019-05-07T05:23:33.549Z,60.97
2019-05-07T05:24:42.377Z,60.62
2019-05-07T05:25:48.538Z,60.62
2019-05-07T05:26:52.688Z,60.49
2019-05-07T05:27:56.283Z,60.49
2019-05-07T05:29:02.280Z,59.77
2019-05-07T05:30:08.912Z,60.56
2019-05-07T05:31:13.871Z,58.44
2019-05-07T05:32:17.514Z,58.44
2019-05-07T05:33:23.273Z,58.15
2019-05-07T05:34:26.572Z,58.78
2019-05-07T05:35:32.105Z,58.78
2019-05-07T05:36:35.619Z,58.06
2019-05-07T05:37:39.559Z,57.50
2019-05-07T05:38:43.218Z,57.01
2019-05-07T05:39:47.226Z,57.01
2019-05-07T05:40:52.105Z,57.93
2019-05-07T05:42:07.669Z,58.78
2019-05-07T05:43:12.927Z,57.79
2019-05-07T05:44:22.788Z,57.29
2019-05-07T05:45:42.971Z,56.80
2019-05-07T05:46:46.638Z,56.30
2019-05-07T05:48:01.956Z,56.30
2019-05-07T05:48:55.646Z,55.40
2019-05-07T05:50:01.943Z,56.30
2019-05-07T05:51:13.185Z,56.17
2019-05-07T05:52:18.558Z,56.17
2019-05-07T05:53:40.095Z,54.94
2019-05-07T05:54:52.875Z,52.86
2019-05-07T05:55:59.248Z,52.86
2019-05-07T05:57:07.266Z,52.75
2019-05-07T05:58:12.541Z,51.72
2019-05-07T05:59:25.439Z,53.24
2019-05-07T06:00:27.767Z,53.88
2019-05-07T06:01:35.782Z,53.88
2019-05-07T06:02:44.843Z,53.44
2019-05-07T06:03:51.997Z,54.00
2019-05-07T06:05:02.216Z,53.20
2019-05-07T06:06:08.518Z,53.20
2019-05-07T06:07:22.775Z,52.47
2019-05-07T06:08:44.862Z,52.47
2019-05-07T06:09:53.161Z,54.24
2019-05-07T06:11:04.517Z,54.24
2019-05-07T06:12:18.697Z,53.93
2019-05-07T06:13:27.255Z,52.65
2019-05-07T06:14:42.456Z,53.13
2019-05-07T06:16:00.051Z,52.81
2019-05-07T06:17:19.869Z,50.93
2019-05-07T06:18:35.740Z,51.74
2019-05-07T06:20:02.928Z,51.74
2019-05-07T06:21:12.604Z,51.15
2019-05-07T06:22:22.336Z,52.94
2019-05-07T06:23:27.619Z,51.38
2019-05-07T06:24:35.826Z,51.02
2019-05-07T06:25:42.923Z,51.41
2019-05-07T06:26:45.956Z,52.07
2019-05-07T06:27:49.618Z,51.51
2019-05-07T06:28:53.689Z,51.02
2019-05-07T06:29:57.325Z,50.71
2019-05-07T06:31:02.642Z,50.26
2019-05-07T06:32:07.947Z,50.74
2019-05-07T06:33:12.409Z,50.61
2019-05-07T06:34:17.846Z,50.96
2019-05-07T06:35:22.956Z,49.81
2019-05-07T06:36:27.672Z,49.34
2019-05-07T06:37:32.329Z,49.66
2019-05-07T06:38:42.598Z,50.03
2019-05-07T06:39:47.475Z,50.77
2019-05-07T06:40:52.765Z,50.35
2019-05-07T06:42:14.131Z,49.38
2019-05-07T06:43:34.810Z,49.67
2019-05-07T06:44:39.523Z,49.68
2019-05-07T06:45:45.323Z,49.70
2019-05-07T06:46:48.955Z,48.46
2019-05-07T06:47:52.741Z,49.34
2019-05-07T06:48:56.479Z,49.69
2019-05-07T06:50:03.131Z,49.20
2019-05-07T06:51:06.940Z,50.17
2019-05-07T06:52:12.230Z,49.70
2019-05-07T06:53:15.985Z,49.91
2019-05-07T06:54:19.944Z,49.97
2019-05-07T06:55:23.614Z,49.97
2019-05-07T06:56:27.277Z,48.35
2019-05-07T06:57:33.000Z,49.70
2019-05-07T06:58:44.894Z,50.49
2019-05-07T06:59:50.182Z,50.64
2019-05-07T07:01:04.512Z,49.68
2019-05-07T07:02:25.667Z,49.09
2019-05-07T07:03:33.650Z,49.66
2019-05-07T07:04:39.320Z,49.61
2019-05-07T07:05:47.693Z,50.23
2019-05-07T07:06:52.964Z,50.59
2019-05-07T07:08:12.519Z,50.54
2019-05-07T07:09:17.801Z,50.16
2019-05-07T07:10:23.127Z,49.96
2019-05-07T07:11:28.454Z,49.66
2019-05-07T07:12:33.380Z,50.12
2019-05-07T07:13:44.351Z,50.24
2019-05-07T07:14:47.982Z,49.08
2019-05-07T07:15:52.270Z,49.67
2019-05-07T07:16:56.038Z,50.71
2019-05-07T07:17:59.671Z,49.50
2019-05-07T07:19:03.508Z,50.67
2019-05-07T07:20:07.284Z,51.47
2019-05-07T07:21:12.440Z,51.45
2019-05-07T07:22:16.167Z,50.89
2019-05-07T07:23:19.927Z,51.67
2019-05-07T07:24:23.627Z,51.80
2019-05-07T07:25:27.257Z,52.18
2019-05-07T07:26:32.801Z,52.45
2019-05-07T07:27:36.280Z,52.98
2019-05-07T07:28:39.917Z,52.42
2019-05-07T07:29:53.982Z,52.65
2019-05-07T07:31:02.382Z,53.56
2019-05-07T07:32:07.740Z,54.27
2019-05-07T07:33:13.012Z,55.80
2019-05-07T07:34:16.662Z,56.47
2019-05-07T07:35:22.447Z,57.27
2019-05-07T07:36:27.336Z,56.86
2019-05-07T07:37:32.651Z,57.34
2019-05-07T07:38:36.459Z,56.70
2019-05-07T07:39:40.173Z,56.97
2019-05-07T07:40:45.464Z,58.86
2019-05-07T07:41:53.467Z,59.47
2019-05-07T07:42:57.139Z,59.18
2019-05-07T07:44:02.105Z,59.18
2019-05-07T07:45:19.879Z,60.10
2019-05-07T07:46:23.512Z,59.60
2019-05-07T07:47:27.153Z,60.05
2019-05-07T07:48:32.061Z,60.05
2019-05-07T07:49:36.101Z,60.19
2019-05-07T07:50:42.017Z,60.07
2019-05-07T07:51:45.796Z,60.79
2019-05-07T07:52:49.649Z,60.79
2019-05-07T07:53:53.291Z,60.90
2019-05-07T07:54:56.929Z,60.96
2019-05-07T07:56:18.739Z,60.96
2019-05-07T07:57:24.007Z,60.67
2019-05-07T07:58:38.316Z,59.63
2019-05-07T07:59:52.950Z,59.63
2019-05-07T08:01:02.834Z,60.33
2019-05-07T08:02:17.267Z,60.33
2019-05-07T08:03:22.572Z,60.34
2019-05-07T08:04:26.336Z,59.69
2019-05-07T08:05:32.420Z,59.69
2019-05-07T08:06:37.102Z,59.29
2019-05-07T08:07:42.633Z,60.67
2019-05-07T08:08:46.097Z,59.85
2019-05-07T08:09:51.886Z,59.85
2019-05-07T08:10:55.133Z,60.25
2019-05-07T08:11:59.015Z,61.05
2019-05-07T08:13:02.686Z,61.05
2019-05-07T08:14:07.431Z,61.28
2019-05-07T08:15:18.164Z,61.52
2019-05-07T08:16:16.726Z,61.52
2019-05-07T08:17:22.330Z,63.54
2019-05-07T08:18:25.759Z,63.54
2019-05-07T08:19:29.369Z,61.92
2019-05-07T08:20:33.077Z,61.35
2019-05-07T08:21:36.792Z,60.74
2019-05-07T08:22:42.344Z,60.30
2019-05-07T08:23:46.045Z,61.29
2019-05-07T08:24:51.752Z,58.75
2019-05-07T08:25:55.020Z,60.02
2019-05-07T08:26:58.691Z,60.02
2019-05-07T08:28:02.945Z,61.04
2019-05-07T08:29:06.643Z,59.27
2019-05-07T08:30:12.217Z,59.98
2019-05-07T08:31:26.427Z,58.73
2019-05-07T08:32:34.728Z,59.65
2019-05-07T08:33:58.367Z,60.92
2019-05-07T08:35:03.648Z,60.05
2019-05-07T08:36:14.901Z,57.02
2019-05-07T08:37:17.544Z,57.10
2019-05-07T08:38:21.909Z,57.67
2019-05-07T08:39:25.620Z,57.13
2019-05-07T08:40:29.738Z,56.51
2019-05-07T08:41:33.419Z,57.50
2019-05-07T08:42:37.123Z,57.14
2019-05-07T08:43:42.709Z,57.06
2019-05-07T08:45:02.306Z,57.22
2019-05-07T08:46:18.982Z,55.75
2019-05-07T08:47:27.231Z,54.08
2019-05-07T08:48:32.496Z,55.38
2019-05-07T08:49:39.937Z,56.10
2019-05-07T08:50:42.114Z,55.25
2019-05-07T08:51:47.442Z,54.18
2019-05-07T08:52:52.203Z,51.75
2019-05-07T08:54:07.930Z,50.09
2019-05-07T08:55:12.602Z,50.26
2019-05-07T08:56:16.382Z,52.13
2019-05-07T08:57:22.554Z,52.13
2019-05-07T08:58:25.446Z,52.20
2019-05-07T08:59:31.895Z,52.20
2019-05-07T09:00:35.423Z,52.74
2019-05-07T09:01:43.051Z,52.01
2019-05-07T09:02:46.412Z,52.01
2019-05-07T09:03:51.746Z,50.03
2019-05-07T09:04:55.407Z,50.03
2019-05-07T09:06:02.476Z,49.62
2019-05-07T09:07:06.107Z,47.93
2019-05-07T09:08:09.744Z,48.84
2019-05-07T09:09:14.278Z,47.51
2019-05-07T09:10:17.990Z,45.67
2019-05-07T09:11:23.037Z,47.02
2019-05-07T09:12:26.676Z,46.16
2019-05-07T09:13:30.311Z,46.48
2019-05-07T09:14:33.951Z,45.12
2019-05-07T09:15:37.883Z,44.92
2019-05-07T09:16:42.651Z,44.09
2019-05-07T09:17:46.604Z,42.45
2019-05-07T09:18:52.497Z,41.72
2019-05-07T09:19:55.692Z,43.40
2019-05-07T09:20:59.328Z,41.03
2019-05-07T09:22:02.999Z,43.89
2019-05-07T09:23:06.638Z,42.09
2019-05-07T09:24:12.156Z,43.94
2019-05-07T09:25:16.010Z,43.36
2019-05-07T09:26:22.109Z,42.81
2019-05-07T09:27:33.271Z,43.69
2019-05-07T09:28:55.028Z,44.74
2019-05-07T09:30:09.393Z,45.40
2019-05-07T09:31:17.367Z,46.03
2019-05-07T09:32:32.694Z,46.95
2019-05-07T09:33:39.461Z,48.07
2019-05-07T09:34:54.227Z,47.59
2019-05-07T09:35:57.319Z,46.90
2019-05-07T09:37:20.352Z,46.25
2019-05-07T09:38:24.562Z,47.79
2019-05-07T09:39:28.230Z,49.31
2019-05-07T09:40:32.137Z,49.02
2019-05-07T09:41:35.848Z,49.87
2019-05-07T09:42:39.488Z,49.46
2019-05-07T09:43:43.205Z,49.83
2019-05-07T09:44:47.434Z,49.38
2019-05-07T09:45:52.357Z,49.52
2019-05-07T09:46:56.080Z,50.10
2019-05-07T09:47:59.725Z,50.54
2019-05-07T09:49:03.375Z,49.63
2019-05-07T09:50:08.897Z,50.47
2019-05-07T09:51:13.091Z,50.63
2019-05-07T09:52:16.724Z,50.63
2019-05-07T09:53:20.358Z,49.58
2019-05-07T09:54:24.031Z,49.08
2019-05-07T09:55:27.686Z,49.44
2019-05-07T09:56:32.004Z,49.78
2019-05-07T09:57:35.903Z,49.69
2019-05-07T09:58:39.509Z,49.46
2019-05-07T09:59:43.875Z,49.79
2019-05-07T10:00:47.522Z,49.79
2019-05-07T10:01:51.265Z,49.44
2019-05-07T10:02:56.704Z,49.00
2019-05-07T10:04:02.419Z,50.11
2019-05-07T10:05:07.065Z,48.84
2019-05-07T10:06:12.439Z,48.75
2019-05-07T10:07:16.204Z,48.86
2019-05-07T10:08:19.908Z,48.48
2019-05-07T10:09:23.534Z,48.47
2019-05-07T10:10:27.227Z,48.87
2019-05-07T10:11:32.970Z,49.07
2019-05-07T10:12:38.606Z,49.02
2019-05-07T10:13:43.881Z,49.02
2019-05-07T10:14:47.551Z,49.73
2019-05-07T10:15:52.680Z,49.18
2019-05-07T10:16:57.952Z,48.59
2019-05-07T10:18:09.140Z,48.47
2019-05-07T10:19:12.979Z,48.24
2019-05-07T10:20:22.365Z,48.24
2019-05-07T10:21:24.285Z,49.05
2019-05-07T10:22:28.019Z,49.05
2019-05-07T10:23:31.776Z,49.04
2019-05-07T10:24:35.403Z,49.85
2019-05-07T10:25:39.080Z,49.56
2019-05-07T10:26:42.967Z,49.73
2019-05-07T10:27:46.833Z,49.95
2019-05-07T10:28:52.889Z,49.95
2019-05-07T10:29:57.029Z,50.18
2019-05-07T10:31:00.859Z,50.31
2019-05-07T10:32:04.606Z,49.64
2019-05-07T10:33:08.303Z,48.90
2019-05-07T10:34:12.501Z,49.28
2019-05-07T10:35:16.444Z,50.05
2019-05-07T10:36:20.121Z,49.34
2019-05-07T10:37:24.303Z,49.19
2019-05-07T10:38:28.506Z,49.19
2019-05-07T10:39:32.640Z,50.25
2019-05-07T10:40:36.362Z,49.52
2019-05-07T10:41:42.334Z,49.29
2019-05-07T10:42:46.262Z,49.83
2019-05-07T10:43:51.913Z,48.70
2019-05-07T10:45:03.152Z,48.96
2019-05-07T10:46:14.508Z,49.32
2019-05-07T10:47:29.288Z,49.97
2019-05-07T10:48:34.550Z,49.76
2019-05-07T10:49:42.900Z,48.43
2019-05-07T10:50:51.696Z,48.79
2019-05-07T10:51:55.571Z,48.95
2019-05-07T10:52:59.426Z,49.44
2019-05-07T10:54:03.118Z,48.85
2019-05-07T10:55:07.144Z,49.12
2019-05-07T10:56:11.839Z,48.79
2019-05-07T10:57:15.715Z,48.97
2019-05-07T10:58:19.380Z,49.06
2019-05-07T10:59:42.298Z,50.22
2019-05-07T11:00:46.506Z,50.40
2019-05-07T11:01:52.076Z,49.83
2019-05-07T11:02:55.721Z,48.38
2019-05-07T11:03:59.401Z,49.37
2019-05-07T11:05:03.237Z,49.44
2019-05-07T11:06:07.213Z,49.81
2019-05-07T11:07:10.865Z,50.18
2019-05-07T11:08:14.596Z,51.23
2019-05-07T11:09:18.746Z,50.24
2019-05-07T11:10:22.481Z,49.62
2019-05-07T11:11:27.500Z,48.54
2019-05-07T11:12:31.981Z,48.72
2019-05-07T11:13:35.850Z,48.84
2019-05-07T11:14:39.543Z,49.60
2019-05-07T11:15:44.951Z,50.18
2019-05-07T11:16:52.055Z,49.21
2019-05-07T11:18:12.723Z,49.53
2019-05-07T11:19:18.936Z,49.79
2019-05-07T11:20:22.684Z,49.70
2019-05-07T11:21:33.411Z,50.54
2019-05-07T11:22:37.627Z,50.68
2019-05-07T11:23:41.914Z,50.42
2019-05-07T11:24:47.052Z,48.67
2019-05-07T11:25:52.654Z,50.34
2019-05-07T11:26:56.275Z,49.83
2019-05-07T11:27:59.939Z,49.00
2019-05-07T11:29:03.677Z,49.37
2019-05-07T11:30:08.515Z,50.52
2019-05-07T11:31:12.504Z,50.37
2019-05-07T11:32:16.371Z,49.14
2019-05-07T11:33:22.067Z,49.59
2019-05-07T11:34:25.520Z,50.03
2019-05-07T11:35:29.276Z,50.68
2019-05-07T11:36:34.425Z,49.52
2019-05-07T11:37:38.265Z,50.77
2019-05-07T11:38:44.612Z,49.59
2019-05-07T11:39:47.318Z,49.81
2019-05-07T11:40:51.774Z,50.71
2019-05-07T11:42:15.167Z,50.29
2019-05-07T11:43:23.624Z,50.22
2019-05-07T11:44:29.383Z,49.55
2019-05-07T11:45:49.949Z,49.76
2019-05-07T11:47:07.507Z,50.83
2019-05-07T11:48:13.308Z,51.22
2019-05-07T11:49:22.743Z,50.74
2019-05-07T11:50:33.234Z,50.76
2019-05-07T11:51:44.590Z,50.46
2019-05-07T11:52:52.959Z,50.61
2019-05-07T11:54:13.513Z,50.46
2019-05-07T11:55:17.262Z,51.28
2019-05-07T11:56:22.003Z,50.97
2019-05-07T11:57:25.782Z,50.88
2019-05-07T11:58:29.460Z,50.78
2019-05-07T11:59:33.139Z,50.80
2019-05-07T12:00:54.715Z,51.72
2019-05-07T12:02:00.015Z,51.44
2019-05-07T12:03:06.405Z,50.96
2019-05-07T12:04:12.380Z,51.34
2019-05-07T12:05:15.873Z,51.85
2019-05-07T12:06:21.561Z,51.41
2019-05-07T12:07:24.914Z,51.46
2019-05-07T12:08:39.326Z,50.75
2019-05-07T12:09:34.036Z,50.60
2019-05-07T12:10:37.839Z,50.97
2019-05-07T12:11:42.553Z,50.80
2019-05-07T12:12:49.304Z,51.24
2019-05-07T12:13:52.984Z,50.83
2019-05-07T12:14:56.702Z,51.32
2019-05-07T12:16:02.706Z,51.51
2019-05-07T12:17:05.735Z,51.44
2019-05-07T12:18:09.380Z,51.44
2019-05-07T12:19:16.405Z,51.79
2019-05-07T12:20:18.762Z,51.77
2019-05-07T12:21:24.519Z,51.98
2019-05-07T12:22:47.060Z,52.61
2019-05-07T12:23:52.519Z,52.69
2019-05-07T12:24:56.248Z,52.69
2019-05-07T12:26:23.395Z,52.75
2019-05-07T12:27:27.129Z,52.60
2019-05-07T12:28:32.566Z,52.48
2019-05-07T12:29:36.160Z,52.43
2019-05-07T12:30:51.735Z,52.43
2019-05-07T12:31:57.127Z,52.00
2019-05-07T12:33:18.743Z,52.00
2019-05-07T12:34:24.032Z,52.53
2019-05-07T12:35:27.669Z,52.66
2019-05-07T12:36:32.045Z,53.31
2019-05-07T12:37:36.326Z,53.09
2019-05-07T12:38:41.724Z,53.22
2019-05-07T12:39:45.460Z,53.88
2019-05-07T12:40:49.080Z,54.36
2019-05-07T12:41:57.575Z,52.74
2019-05-07T12:43:01.961Z,52.77
2019-05-07T12:44:07.442Z,52.67
2019-05-07T12:45:15.644Z,52.62
2019-05-07T12:46:19.447Z,52.33
2019-05-07T12:47:23.146Z,53.70
2019-05-07T12:48:26.930Z,53.70
2019-05-07T12:49:32.461Z,52.96
2019-05-07T12:50:36.333Z,53.68
2019-05-07T12:51:42.976Z,53.71
2019-05-07T12:52:52.964Z,53.27
2019-05-07T12:54:08.532Z,53.05
2019-05-07T12:55:26.097Z,53.05
2019-05-07T12:56:31.924Z,52.92
2019-05-07T12:57:35.089Z,53.16
2019-05-07T12:58:38.744Z,53.61
2019-05-07T12:59:42.694Z,53.61
2019-05-07T13:01:06.386Z,53.20
2019-05-07T13:02:26.834Z,53.27
2019-05-07T13:03:21.905Z,53.27
2019-05-07T13:04:27.158Z,53.39
2019-05-07T13:05:30.878Z,53.90
2019-05-07T13:06:36.195Z,54.40
2019-05-07T13:07:41.842Z,53.74
2019-05-07T13:08:47.911Z,53.59
2019-05-07T13:09:52.042Z,53.92
2019-05-07T13:10:55.836Z,53.90
2019-05-07T13:11:59.549Z,54.18
2019-05-07T13:13:07.278Z,54.16
2019-05-07T13:14:12.552Z,53.68
2019-05-07T13:15:24.972Z,53.68
2019-05-07T13:16:24.401Z,53.46
2019-05-07T13:17:28.146Z,53.46
2019-05-07T13:18:31.899Z,53.70
2019-05-07T13:19:39.109Z,53.55
2019-05-07T13:20:42.481Z,53.55
2019-05-07T13:21:49.324Z,53.45
2019-05-07T13:22:51.648Z,53.45
2019-05-07T13:23:56.884Z,53.67
2019-05-07T13:25:02.160Z,53.84
2019-05-07T13:26:09.297Z,54.52
2019-05-07T13:27:12.984Z,54.52
2019-05-07T13:28:16.753Z,53.87
2019-05-07T13:29:22.132Z,53.87
2019-05-07T13:30:28.179Z,54.27
2019-05-07T13:31:34.897Z,53.44
2019-05-07T13:32:39.647Z,53.78
2019-05-07T13:33:44.657Z,54.40
2019-05-07T13:34:48.440Z,55.43
2019-05-07T13:35:52.868Z,54.40
2019-05-07T13:37:02.671Z,54.40
2019-05-07T13:38:08.180Z,54.70
2019-05-07T13:39:13.694Z,55.20
2019-05-07T13:40:19.399Z,55.05
2019-05-07T13:41:37.184Z,55.29
2019-05-07T13:42:44.006Z,54.51
2019-05-07T13:44:06.317Z,54.54
2019-05-07T13:45:12.012Z,54.54
2019-05-07T13:46:16.442Z,54.80
2019-05-07T13:47:24.759Z,54.14
2019-05-07T13:48:28.678Z,54.95
2019-05-07T13:49:32.461Z,54.83
2019-05-07T13:50:36.224Z,54.75
2019-05-07T13:51:41.792Z,54.91
2019-05-07T13:52:45.710Z,54.91
2019-05-07T13:53:49.325Z,54.59
2019-05-07T13:54:53.878Z,54.35
2019-05-07T13:55:57.875Z,54.24
2019-05-07T13:57:01.562Z,54.80
2019-05-07T13:58:05.413Z,56.14
2019-05-07T13:59:09.040Z,56.14
2019-05-07T14:00:16.080Z,56.01
2019-05-07T14:01:24.250Z,55.30
2019-05-07T14:02:31.646Z,56.29
2019-05-07T14:03:34.917Z,55.36
2019-05-07T14:04:38.597Z,55.58
2019-05-07T14:05:42.698Z,54.28
2019-05-07T14:06:46.305Z,54.87
2019-05-07T14:07:50.914Z,54.87
2019-05-07T14:08:55.212Z,54.87
2019-05-07T14:09:58.822Z,54.87
2019-05-07T14:11:02.840Z,54.68
2019-05-07T14:12:06.486Z,55.33
2019-05-07T14:13:16.594Z,55.33
2019-05-07T14:14:15.636Z,54.71